createdAt,value
2023-04-05T00:00:38.272Z,51.11
2023-04-05T00:03:06.133Z,52.13
2023-04-05T00:05:34.650Z,51.92
2023-04-05T00:08:01.933Z,51.84
2023-04-05T00:10:29.812Z,51.81
2023-04-05T00:13:00.120Z,52.10
2023-04-05T00:15:32.134Z,52.26
2023-04-05T00:18:00.418Z,52.31
2023-04-05T00:20:27.431Z,52.33
2023-04-05T00:22:54.407Z,52.61
2023-04-05T00:25:22.757Z,52.70
2023-04-05T00:27:49.744Z,53.21
2023-04-05T00:30:21.321Z,53.04
2023-04-05T00:32:51.581Z,52.88
2023-04-05T00:35:18.854Z,52.92
2023-04-05T00:37:46.071Z,52.57
2023-04-05T00:40:13.208Z,52.98
2023-04-05T00:42:40.158Z,52.98
2023-04-05T00:45:07.782Z,53.03
2023-04-05T00:47:34.903Z,52.57
2023-04-05T00:50:02.085Z,52.72
2023-04-05T00:52:31.099Z,52.94
2023-04-05T00:54:58.801Z,53.02
2023-04-05T00:57:26.515Z,53.10
2023-04-05T00:59:53.599Z,53.00
2023-04-05T01:02:24.729Z,53.41
2023-04-05T01:05:01.168Z,53.33
2023-04-05T01:07:53.941Z,53.66
2023-04-05T01:10:23.299Z,53.40
2023-04-05T01:12:50.907Z,53.07
2023-04-05T01:15:19.036Z,53.46
2023-04-05T01:17:47.140Z,53.60
2023-04-05T01:20:15.273Z,53.47
2023-04-05T01:23:11.442Z,53.44
2023-04-05T01:26:00.254Z,53.60
2023-04-05T01:28:27.451Z,53.79
2023-04-05T01:31:26.750Z,54.28
2023-04-05T01:34:07.176Z,54.39
2023-04-05T01:36:41.338Z,54.06
2023-04-05T01:39:11.904Z,53.91
2023-04-05T01:41:40.815Z,53.88
2023-04-05T01:44:07.898Z,54.12
2023-04-05T01:46:34.904Z,53.82
2023-04-05T01:49:02.160Z,53.96
2023-04-05T01:51:30.361Z,53.87
2023-04-05T01:53:58.163Z,53.90
2023-04-05T01:56:25.097Z,54.13
2023-04-05T01:58:52.010Z,53.93
2023-04-05T02:01:19.370Z,54.19
2023-04-05T02:03:46.641Z,54.23
2023-04-05T02:06:13.811Z,54.88
2023-04-05T02:08:40.757Z,55.25
2023-04-05T02:11:08.014Z,54.61
2023-04-05T02:13:36.657Z,54.53
2023-04-05T02:16:03.617Z,55.17
2023-04-05T02:18:31.544Z,55.34
2023-04-05T02:21:04.424Z,56.04
2023-04-05T02:23:32.002Z,55.26
2023-04-05T02:25:59.495Z,55.73
2023-04-05T02:28:26.757Z,55.55
2023-04-05T02:30:54.289Z,55.32
2023-04-05T02:33:22.955Z,55.09
2023-04-05T02:35:52.198Z,55.59
2023-04-05T02:38:20.196Z,55.14
2023-04-05T02:40:51.483Z,55.60
2023-04-05T02:43:18.515Z,55.54
2023-04-05T02:45:47.052Z,55.76
2023-04-05T02:48:14.885Z,56.03
2023-04-05T02:50:42.567Z,55.54
2023-04-05T02:53:09.785Z,55.45
2023-04-05T02:55:37.109Z,55.67
2023-04-05T02:58:04.258Z,55.88
2023-04-05T03:00:38.531Z,56.08
2023-04-05T03:03:05.966Z,56.17
2023-04-05T03:05:33.977Z,55.92
2023-04-05T03:08:02.410Z,56.31
2023-04-05T03:10:36.346Z,56.39
2023-04-05T03:13:16.168Z,56.58
2023-04-05T03:15:46.274Z,56.30
2023-04-05T03:18:16.738Z,56.21
2023-04-05T03:20:46.000Z,56.49
2023-04-05T03:23:18.767Z,56.20
2023-04-05T03:25:49.531Z,56.14
2023-04-05T03:28:18.569Z,56.58
2023-04-05T03:30:50.534Z,56.67
2023-04-05T03:33:20.740Z,56.81
2023-04-05T03:35:50.456Z,56.16
2023-04-05T03:38:18.695Z,56.18
2023-04-05T03:40:54.942Z,57.01
2023-04-05T03:43:22.519Z,56.84
2023-04-05T03:45:49.778Z,56.49
2023-04-05T03:48:21.053Z,56.34
2023-04-05T03:50:49.720Z,56.07
2023-04-05T03:53:18.012Z,56.16
2023-04-05T03:55:50.591Z,56.67
2023-04-05T03:58:22.119Z,56.61
2023-04-05T04:00:49.353Z,56.66
2023-04-05T04:03:22.548Z,56.72
2023-04-05T04:05:52.638Z,56.50
2023-04-05T04:08:21.381Z,56.76
2023-04-05T04:10:50.013Z,56.76
2023-04-05T04:13:25.844Z,57.27
2023-04-05T04:16:13.826Z,57.18
2023-04-05T04:19:05.125Z,57.21
2023-04-05T04:21:53.034Z,57.16
2023-04-05T04:24:46.382Z,56.93
2023-04-05T04:27:32.594Z,57.13
2023-04-05T04:30:15.031Z,56.88
2023-04-05T04:33:00.092Z,57.00
2023-04-05T04:35:47.184Z,57.28
2023-04-05T04:38:29.444Z,57.28
2023-04-05T04:41:15.003Z,57.55
2023-04-05T04:44:05.680Z,57.62
2023-04-05T04:46:55.911Z,57.78
2023-04-05T04:49:46.829Z,57.55
2023-04-05T04:52:13.712Z,57.49
2023-04-05T04:54:42.877Z,57.88
2023-04-05T04:57:09.941Z,57.68
2023-04-05T04:59:37.046Z,57.92
2023-04-05T05:02:05.933Z,58.41
2023-04-05T05:04:37.541Z,58.23
2023-04-05T05:07:04.445Z,58.30
2023-04-05T05:09:33.919Z,58.37
2023-04-05T05:12:01.864Z,58.37
2023-04-05T05:14:28.733Z,58.20
2023-04-05T05:16:59.227Z,58.79
2023-04-05T05:19:29.229Z,58.26
2023-04-05T05:21:56.701Z,58.12
2023-04-05T05:24:24.662Z,57.98
2023-04-05T05:26:51.726Z,58.04
2023-04-05T05:29:20.527Z,57.95
2023-04-05T05:31:48.717Z,57.39
2023-04-05T05:34:16.061Z,57.71
2023-04-05T05:36:48.835Z,57.87
2023-04-05T05:39:16.440Z,57.45
2023-04-05T05:41:44.630Z,57.15
2023-04-05T05:44:12.223Z,56.65
2023-04-05T05:46:39.374Z,56.22
2023-04-05T05:49:06.335Z,55.36
2023-04-05T05:51:33.742Z,54.71
2023-04-05T05:54:00.696Z,54.02
2023-04-05T05:56:27.593Z,53.15
2023-04-05T05:58:54.582Z,52.27
2023-04-05T06:01:23.034Z,51.46
2023-04-05T06:03:50.769Z,50.67
2023-04-05T06:06:17.723Z,50.06
2023-04-05T06:08:44.717Z,48.47
2023-04-05T06:11:21.814Z,47.53
2023-04-05T06:13:50.209Z,47.56
2023-04-05T06:16:17.141Z,46.09
2023-04-05T06:18:44.336Z,45.85
2023-04-05T06:21:11.306Z,44.83
2023-04-05T06:23:38.314Z,43.62
2023-04-05T06:26:05.353Z,42.71
2023-04-05T06:28:32.271Z,41.75
2023-04-05T06:30:59.667Z,41.37
2023-04-05T06:33:27.208Z,40.25
2023-04-05T06:35:54.098Z,39.44
2023-04-05T06:38:21.086Z,39.25
2023-04-05T06:40:48.018Z,38.32
2023-04-05T06:43:14.936Z,37.97
2023-04-05T06:45:43.632Z,36.18
2023-04-05T06:48:11.393Z,35.81
2023-04-05T06:50:38.468Z,36.28
2023-04-05T06:53:05.530Z,35.03
2023-04-05T06:55:33.103Z,34.30
2023-04-05T06:58:01.186Z,34.19
2023-04-05T07:00:28.060Z,32.41
2023-04-05T07:02:54.949Z,32.43
2023-04-05T07:05:22.121Z,32.23
2023-04-05T07:07:49.124Z,31.76
2023-04-05T07:10:16.659Z,30.99
2023-04-05T07:12:43.593Z,30.54
2023-04-05T07:15:11.092Z,28.68
2023-04-05T07:17:38.065Z,28.25
2023-04-05T07:20:08.380Z,28.15
2023-04-05T07:22:35.945Z,27.92
2023-04-05T07:25:02.868Z,27.92
2023-04-05T07:27:30.508Z,27.00
2023-04-05T07:29:58.430Z,27.01
2023-04-05T07:32:25.502Z,26.04
2023-04-05T07:34:52.672Z,25.48
2023-04-05T07:37:19.593Z,25.19
2023-04-05T07:39:46.612Z,24.64
2023-04-05T07:42:13.515Z,24.76
2023-04-05T07:44:40.387Z,23.78
2023-04-05T07:47:07.980Z,22.91
2023-04-05T07:49:35.077Z,23.02
2023-04-05T07:52:02.049Z,22.16
2023-04-05T07:54:31.249Z,21.12
2023-04-05T07:56:58.332Z,21.33
2023-04-05T07:59:25.457Z,20.65
2023-04-05T08:01:53.958Z,20.61
2023-04-05T08:04:26.325Z,21.20
2023-04-05T08:06:53.262Z,19.83
2023-04-05T08:09:20.171Z,20.40
2023-04-05T08:11:47.099Z,19.42
2023-04-05T08:14:14.089Z,19.80
2023-04-05T08:16:41.160Z,19.67
2023-04-05T08:19:08.089Z,19.76
2023-04-05T08:21:35.411Z,19.53
2023-04-05T08:24:02.854Z,19.33
2023-04-05T08:26:29.766Z,19.08
2023-04-05T08:28:56.708Z,19.56
2023-04-05T08:31:23.685Z,20.29
2023-04-05T08:33:50.667Z,20.36
2023-04-05T08:36:17.823Z,19.87
2023-04-05T08:38:44.657Z,19.50
2023-04-05T08:41:19.544Z,19.06
2023-04-05T08:43:49.163Z,18.75
2023-04-05T08:46:17.933Z,17.95
2023-04-05T08:48:45.732Z,18.20
2023-04-05T08:51:12.898Z,17.53
2023-04-05T08:53:40.083Z,16.62
2023-04-05T08:56:07.863Z,17.50
2023-04-05T08:58:37.681Z,17.08
2023-04-05T09:01:06.933Z,16.41
2023-04-05T09:03:37.950Z,15.76
2023-04-05T09:06:09.252Z,15.54
2023-04-05T09:08:36.488Z,15.95
2023-04-05T09:11:03.485Z,15.41
2023-04-05T09:13:31.658Z,16.02
2023-04-05T09:16:02.326Z,15.49
2023-04-05T09:18:29.278Z,15.08
2023-04-05T09:21:06.474Z,14.65
2023-04-05T09:23:37.304Z,15.48
2023-04-05T09:26:27.504Z,16.43
2023-04-05T09:28:58.564Z,17.77
2023-04-05T09:31:36.187Z,17.17
2023-04-05T09:34:09.001Z,18.17
2023-04-05T09:36:36.466Z,19.78
2023-04-05T09:39:08.302Z,18.94
2023-04-05T09:41:36.580Z,18.78
2023-04-05T09:44:03.714Z,18.89
2023-04-05T09:46:38.442Z,19.15
2023-04-05T09:49:07.904Z,19.00
2023-04-05T09:51:36.378Z,18.57
2023-04-05T09:54:11.022Z,18.21
2023-04-05T09:56:40.690Z,18.80
2023-04-05T09:59:11.717Z,19.45
2023-04-05T10:01:43.261Z,20.20
2023-04-05T10:04:10.550Z,19.99
2023-04-05T10:06:43.151Z,19.22
2023-04-05T10:09:11.485Z,19.04
2023-04-05T10:11:39.325Z,18.93
2023-04-05T10:14:08.605Z,19.73
2023-04-05T10:16:59.501Z,19.70
2023-04-05T10:19:37.942Z,19.75
2023-04-05T10:22:14.809Z,20.60
2023-04-05T10:24:50.673Z,20.13
2023-04-05T10:27:46.475Z,20.09
2023-04-05T10:30:13.744Z,20.95
2023-04-05T10:33:07.919Z,21.24
2023-04-05T10:35:50.096Z,22.33
2023-04-05T10:38:20.189Z,23.45
2023-04-05T10:40:49.828Z,23.85
2023-04-05T10:43:21.504Z,25.07
2023-04-05T10:45:52.251Z,25.95
2023-04-05T10:48:25.407Z,26.87
2023-04-05T10:50:53.306Z,27.82
2023-04-05T10:53:22.299Z,28.44
2023-04-05T10:55:50.768Z,28.86
2023-04-05T10:58:18.707Z,29.14
2023-04-05T11:00:49.384Z,29.85
2023-04-05T11:03:41.816Z,32.29
2023-04-05T11:06:38.049Z,31.97
2023-04-05T11:09:15.591Z,31.77
2023-04-05T11:11:51.062Z,32.13
2023-04-05T11:14:35.963Z,31.95
2023-04-05T11:17:03.281Z,32.42
2023-04-05T11:19:50.009Z,32.76
2023-04-05T11:22:26.662Z,33.35
2023-04-05T11:24:58.194Z,33.61
2023-04-05T11:27:29.883Z,33.83
2023-04-05T11:30:01.205Z,35.77
2023-04-05T11:32:48.563Z,36.87
2023-04-05T11:35:23.946Z,38.66
2023-04-05T11:38:00.393Z,36.82
2023-04-05T11:40:35.810Z,39.10
2023-04-05T11:43:12.454Z,39.69
2023-04-05T11:45:42.093Z,38.79
2023-04-05T11:48:13.690Z,40.06
2023-04-05T11:50:42.218Z,41.26
2023-04-05T11:53:18.054Z,40.44
2023-04-05T11:55:55.499Z,41.46
2023-04-05T11:58:24.241Z,40.69
2023-04-05T12:01:11.885Z,42.60
2023-04-05T12:03:38.852Z,41.49
2023-04-05T12:06:07.000Z,41.00
2023-04-05T12:08:51.309Z,42.20
2023-04-05T12:11:28.500Z,44.20
2023-04-05T12:14:00.185Z,45.93
2023-04-05T12:16:27.998Z,46.78
2023-04-05T12:19:00.169Z,46.67
2023-04-05T12:21:28.245Z,46.54
2023-04-05T12:23:55.809Z,49.33
2023-04-05T12:26:23.012Z,48.99
2023-04-05T12:28:54.608Z,49.94
2023-04-05T12:31:46.613Z,50.10
2023-04-05T12:34:14.978Z,48.62
2023-04-05T12:36:48.853Z,50.01
2023-04-05T12:39:17.572Z,48.72
2023-04-05T12:41:44.583Z,45.51
2023-04-05T12:44:30.798Z,49.47
2023-04-05T12:47:05.796Z,47.59
2023-04-05T12:49:38.300Z,49.21
2023-04-05T12:52:05.320Z,49.38
2023-04-05T12:54:33.688Z,49.04
2023-04-05T12:57:04.634Z,48.62
2023-04-05T12:59:31.615Z,48.46
2023-04-05T13:01:58.547Z,49.01
2023-04-05T13:04:26.963Z,48.74
2023-04-05T13:06:55.221Z,48.16
2023-04-05T13:09:22.251Z,49.82
2023-04-05T13:11:49.177Z,49.35
2023-04-05T13:14:16.242Z,50.00
2023-04-05T13:16:43.465Z,48.93
2023-04-05T13:19:10.445Z,48.24
2023-04-05T13:21:38.039Z,48.69
2023-04-05T13:24:05.260Z,47.33
2023-04-05T13:26:32.145Z,46.79
2023-04-05T13:28:59.050Z,45.10
2023-04-05T13:31:26.035Z,43.03
2023-04-05T13:33:53.035Z,41.80
2023-04-05T13:36:19.908Z,40.84
2023-04-05T13:38:46.797Z,40.55
2023-04-05T13:41:16.117Z,39.57
2023-04-05T13:43:43.170Z,37.83
2023-04-05T13:46:10.153Z,37.40
2023-04-05T13:48:37.182Z,36.78
2023-04-05T13:51:04.257Z,36.04
2023-04-05T13:53:31.193Z,35.63
2023-04-05T13:55:58.131Z,36.57
2023-04-05T13:58:25.005Z,37.84
2023-04-05T14:00:53.237Z,38.01
2023-04-05T14:03:20.861Z,38.50
2023-04-05T14:05:50.721Z,38.58
2023-04-05T14:08:18.982Z,38.42
2023-04-05T14:10:46.178Z,38.60
2023-04-05T14:13:16.375Z,38.72
2023-04-05T14:15:44.192Z,38.33
2023-04-05T14:18:11.665Z,37.74
2023-04-05T14:20:39.095Z,37.87
2023-04-05T14:23:06.652Z,38.24
2023-04-05T14:25:33.532Z,38.83
2023-04-05T14:28:00.485Z,39.33
2023-04-05T14:30:27.490Z,41.06
2023-04-05T14:32:54.519Z,41.36
2023-04-05T14:35:21.472Z,42.68
2023-04-05T14:37:48.384Z,44.01
2023-04-05T14:40:15.659Z,44.41
2023-04-05T14:42:49.293Z,44.83
2023-04-05T14:45:17.548Z,45.74
2023-04-05T14:47:44.527Z,45.11
2023-04-05T14:50:11.521Z,44.85
2023-04-05T14:52:40.060Z,44.63
2023-04-05T14:55:07.602Z,44.82
2023-04-05T14:57:35.546Z,44.01
2023-04-05T15:00:02.545Z,44.21
2023-04-05T15:02:29.550Z,43.42
2023-04-05T15:05:00.498Z,43.64
2023-04-05T15:07:28.228Z,43.47
2023-04-05T15:09:55.456Z,43.03
2023-04-05T15:12:22.466Z,43.40
2023-04-05T15:14:50.944Z,43.33
2023-04-05T15:17:17.934Z,42.96
2023-04-05T15:19:44.872Z,42.66
2023-04-05T15:22:11.887Z,44.51
2023-04-05T15:24:43.463Z,46.67
2023-04-05T15:27:11.511Z,47.49
2023-04-05T15:29:38.901Z,48.03
2023-04-05T15:32:06.789Z,48.27
2023-04-05T15:34:33.769Z,47.64
2023-04-05T15:37:01.034Z,47.72
2023-04-05T15:39:27.875Z,49.98
2023-04-05T15:41:57.648Z,49.17
2023-04-05T15:44:24.666Z,49.29
2023-04-05T15:46:51.614Z,48.72
2023-04-05T15:49:18.547Z,51.34
2023-04-05T15:51:45.548Z,50.65
2023-04-05T15:54:18.555Z,50.76
2023-04-05T15:56:45.718Z,50.58
2023-04-05T15:59:12.798Z,50.56
2023-04-05T16:01:40.596Z,51.71
2023-04-05T16:04:07.809Z,51.87
2023-04-05T16:06:34.821Z,52.66
2023-04-05T16:09:02.486Z,52.51
2023-04-05T16:11:30.059Z,52.63
2023-04-05T16:13:57.782Z,52.07
2023-04-05T16:16:35.259Z,51.75
2023-04-05T16:19:06.235Z,50.93
2023-04-05T16:21:33.286Z,51.33
2023-04-05T16:24:01.355Z,51.18
2023-04-05T16:26:28.470Z,51.78
2023-04-05T16:28:55.480Z,53.34
2023-04-05T16:31:22.535Z,53.45
2023-04-05T16:33:49.564Z,53.96
2023-04-05T16:36:16.858Z,53.03
2023-04-05T16:38:45.590Z,52.83
2023-04-05T16:41:14.518Z,52.99
2023-04-05T16:43:41.485Z,52.57
2023-04-05T16:46:08.328Z,52.94
2023-04-05T16:48:35.514Z,53.46
2023-04-05T16:51:03.404Z,53.22
2023-04-05T16:53:31.508Z,53.92
2023-04-05T16:55:58.678Z,54.04
2023-04-05T16:58:25.794Z,54.21
2023-04-05T17:00:58.754Z,54.31
2023-04-05T17:03:26.666Z,54.22
2023-04-05T17:05:53.633Z,54.18
2023-04-05T17:08:21.682Z,54.50
2023-04-05T17:10:49.187Z,54.53
2023-04-05T17:13:16.539Z,55.92
2023-04-05T17:15:43.701Z,55.20
2023-04-05T17:18:12.539Z,55.33
2023-04-05T17:20:39.517Z,56.04
2023-04-05T17:23:06.503Z,55.56
2023-04-05T17:25:33.453Z,55.66
2023-04-05T17:28:00.465Z,56.14
2023-04-05T17:30:27.796Z,56.14
2023-04-05T17:32:54.679Z,55.64
2023-04-05T17:35:21.617Z,55.46
2023-04-05T17:37:48.684Z,55.43
2023-04-05T17:40:16.371Z,55.53
2023-04-05T17:42:43.357Z,56.02
2023-04-05T17:45:11.468Z,56.15
2023-04-05T17:47:38.744Z,56.33
2023-04-05T17:50:06.345Z,57.30
2023-04-05T17:52:33.561Z,57.22
2023-04-05T17:55:00.766Z,57.79
2023-04-05T17:57:27.782Z,57.26
2023-04-05T17:59:54.764Z,58.14
2023-04-05T18:02:21.851Z,57.45
2023-04-05T18:04:49.275Z,58.03
2023-04-05T18:07:16.345Z,57.34
2023-04-05T18:09:43.315Z,57.99
2023-04-05T18:12:10.842Z,58.09
2023-04-05T18:14:37.949Z,58.10
2023-04-05T18:17:07.547Z,58.17
2023-04-05T18:19:34.828Z,58.27
2023-04-05T18:22:01.807Z,58.00
2023-04-05T18:24:29.644Z,58.83
2023-04-05T18:26:57.599Z,58.58
2023-04-05T18:29:28.594Z,58.92
2023-04-05T18:31:56.729Z,58.96
2023-04-05T18:34:24.563Z,59.02
2023-04-05T18:36:51.820Z,59.15
2023-04-05T18:39:20.259Z,58.96
2023-04-05T18:41:47.388Z,58.86
2023-04-05T18:44:14.474Z,58.86
2023-04-05T18:46:41.888Z,58.73
2023-04-05T18:49:09.083Z,58.67
2023-04-05T18:51:36.352Z,58.02
2023-04-05T18:54:03.521Z,57.38
2023-04-05T18:56:30.494Z,57.43
2023-04-05T18:58:57.525Z,57.66
2023-04-05T19:01:24.742Z,57.31
2023-04-05T19:03:51.696Z,57.49
2023-04-05T19:06:18.726Z,57.27
2023-04-05T19:08:48.079Z,57.61
2023-04-05T19:11:15.236Z,57.29
2023-04-05T19:13:42.961Z,56.89
2023-04-05T19:16:10.384Z,56.83
2023-04-05T19:18:37.503Z,56.92
2023-04-05T19:21:04.581Z,56.91
2023-04-05T19:23:31.773Z,56.85
2023-04-05T19:25:58.685Z,57.07
2023-04-05T19:28:27.187Z,57.23
2023-04-05T19:30:54.837Z,57.18
2023-04-05T19:33:22.094Z,57.24
2023-04-05T19:35:49.325Z,57.69
2023-04-05T19:38:18.776Z,58.00
2023-04-05T19:40:45.713Z,57.78
2023-04-05T19:43:12.959Z,58.22
2023-04-05T19:45:39.958Z,58.40
2023-04-05T19:48:44.132Z,58.39
2023-04-05T19:51:14.315Z,58.48
2023-04-05T19:53:49.574Z,59.05
2023-04-05T19:56:21.960Z,58.68
2023-04-05T19:59:00.571Z,58.85
2023-04-05T20:01:38.811Z,58.83
2023-04-05T20:04:20.072Z,58.96
2023-04-05T20:06:54.475Z,59.10
2023-04-05T20:09:26.112Z,58.86
2023-04-05T20:12:01.537Z,57.99
2023-04-05T20:14:30.993Z,58.70
2023-04-05T20:16:58.686Z,58.20
2023-04-05T20:19:33.351Z,58.34
2023-04-05T20:22:06.180Z,58.08
2023-04-05T20:24:33.651Z,57.22
2023-04-05T20:27:03.213Z,58.10
2023-04-05T20:29:36.018Z,57.82
2023-04-05T20:32:05.147Z,57.26
2023-04-05T20:34:33.886Z,58.43
2023-04-05T20:37:02.348Z,58.33
2023-04-05T20:39:30.461Z,57.77
2023-04-05T20:41:59.814Z,58.33
2023-04-05T20:44:27.150Z,58.85
2023-04-05T20:46:56.469Z,58.55
2023-04-05T20:49:25.826Z,58.70
2023-04-05T20:51:55.005Z,58.56
2023-04-05T20:54:22.608Z,58.61
2023-04-05T20:56:49.747Z,58.70
2023-04-05T20:59:17.272Z,58.46
2023-04-05T21:01:47.245Z,58.40
2023-04-05T21:04:14.644Z,58.93
2023-04-05T21:06:41.723Z,57.72
2023-04-05T21:09:09.444Z,58.42
2023-04-05T21:11:36.872Z,58.16
2023-04-05T21:14:03.868Z,58.26
2023-04-05T21:16:31.618Z,58.15
2023-04-05T21:18:58.871Z,58.89
2023-04-05T21:21:26.583Z,59.09
2023-04-05T21:23:53.544Z,57.84
2023-04-05T21:26:21.415Z,58.28
2023-04-05T21:28:48.427Z,58.62
2023-04-05T21:31:15.697Z,57.90
2023-04-05T21:33:42.727Z,58.06
2023-04-05T21:36:09.896Z,58.58
2023-04-05T21:38:37.428Z,58.96
2023-04-05T21:41:04.341Z,58.35
2023-04-05T21:43:31.305Z,58.45
2023-04-05T21:45:58.179Z,58.17
2023-04-05T21:48:27.969Z,58.21
2023-04-05T21:50:54.994Z,58.30
2023-04-05T21:53:24.163Z,58.03
2023-04-05T21:55:51.161Z,57.99
2023-04-05T21:58:18.099Z,57.88
2023-04-05T22:00:44.964Z,57.43
2023-04-05T22:03:12.086Z,57.43
2023-04-05T22:05:39.264Z,57.56
2023-04-05T22:08:08.981Z,57.85
2023-04-05T22:10:36.709Z,57.24
2023-04-05T22:13:03.855Z,57.15
2023-04-05T22:15:31.805Z,56.95
2023-04-05T22:17:59.056Z,56.75
2023-04-05T22:20:26.554Z,56.93
2023-04-05T22:22:53.649Z,56.43
2023-04-05T22:25:20.646Z,56.38
2023-04-05T22:27:47.939Z,56.87
2023-04-05T22:30:16.101Z,56.50
2023-04-05T22:32:43.244Z,56.33
2023-04-05T22:35:10.902Z,56.35
2023-04-05T22:37:38.350Z,56.34
2023-04-05T22:40:08.169Z,56.42
2023-04-05T22:42:36.465Z,56.52
2023-04-05T22:45:03.589Z,56.36
2023-04-05T22:47:30.675Z,56.42
2023-04-05T22:49:57.628Z,56.72
2023-04-05T22:52:24.545Z,56.52
2023-04-05T22:54:51.680Z,56.58
2023-04-05T22:57:18.595Z,56.48
2023-04-05T22:59:46.726Z,56.67
2023-04-05T23:02:13.622Z,56.61
2023-04-05T23:04:40.922Z,56.62
2023-04-05T23:07:07.780Z,56.59
2023-04-05T23:09:34.662Z,56.52
2023-04-05T23:12:01.718Z,57.75
2023-04-05T23:14:28.697Z,56.74
2023-04-05T23:16:55.622Z,56.96
2023-04-05T23:19:22.605Z,56.83
2023-04-05T23:21:49.447Z,57.00
2023-04-05T23:24:16.321Z,56.86
2023-04-05T23:26:43.311Z,57.26
2023-04-05T23:29:10.344Z,57.10
2023-04-05T23:31:38.174Z,56.85
2023-04-05T23:34:05.489Z,57.00
2023-04-05T23:36:33.965Z,56.91
2023-04-05T23:39:01.077Z,56.68
2023-04-05T23:41:27.966Z,56.69
2023-04-05T23:43:54.882Z,56.65
2023-04-05T23:46:22.304Z,56.50
2023-04-05T23:48:49.556Z,56.73
2023-04-05T23:51:17.074Z,57.10
2023-04-05T23:53:44.032Z,56.81
2023-04-05T23:56:11.103Z,56.64
2023-04-05T23:58:38.249Z,56.87
